createdAt,value
2019-04-23T00:00:17.070Z,52.29
2019-04-23T00:02:19.732Z,52.01
2019-04-23T00:03:12.893Z,52.36
2019-04-23T00:04:19.260Z,52.58
2019-04-23T00:05:17.253Z,52.58
2019-04-23T00:06:18.904Z,52.39
2019-04-23T00:07:31.133Z,52.58
2019-04-23T00:08:23.233Z,52.48
2019-04-23T00:09:20.481Z,52.58
2019-04-23T00:10:19.437Z,52.39
2019-04-23T00:11:22.119Z,52.84
2019-04-23T00:12:26.479Z,52.55
2019-04-23T00:13:21.511Z,52.67
2019-04-23T00:15:30.831Z,52.77
2019-04-23T00:16:23.709Z,52.67
2019-04-23T00:17:22.968Z,53.22
2019-04-23T00:18:22.237Z,53.22
2019-04-23T00:19:18.921Z,53.13
2019-04-23T00:20:16.785Z,52.94
2019-04-23T00:21:24.794Z,53.22
2019-04-23T00:22:19.979Z,53.03
2019-04-23T00:23:34.969Z,53.32
2019-04-23T00:24:44.233Z,53.03
2019-04-23T00:25:33.141Z,53.03
2019-04-23T00:26:24.141Z,53.22
2019-04-23T00:28:22.987Z,53.99
2019-04-23T00:29:19.212Z,53.80
2019-04-23T00:30:18.639Z,54.18
2019-04-23T00:31:18.521Z,53.70
2019-04-23T00:32:23.731Z,54.18
2019-04-23T00:33:21.754Z,54.18
2019-04-23T00:34:21.200Z,54.18
2019-04-23T00:35:14.881Z,54.18
2019-04-23T00:36:23.028Z,54.08
2019-04-23T00:37:33.230Z,53.89
2019-04-23T00:38:18.372Z,54.27
2019-04-23T00:39:15.296Z,54.08
2019-04-23T00:40:20.287Z,54.37
2019-04-23T00:41:15.932Z,54.66
2019-04-23T00:42:22.095Z,54.66
2019-04-23T00:44:22.861Z,54.82
2019-04-23T00:45:16.662Z,55.20
2019-04-23T00:46:15.488Z,54.82
2019-04-23T00:47:23.649Z,55.23
2019-04-23T00:48:19.677Z,54.82
2019-04-23T00:49:22.647Z,55.40
2019-04-23T00:50:21.379Z,55.20
2019-04-23T00:51:16.739Z,55.11
2019-04-23T00:52:24.341Z,55.77
2019-04-23T00:53:18.890Z,55.58
2019-04-23T00:54:17.859Z,55.49
2019-04-23T00:55:14.758Z,55.40
2019-04-23T00:56:34.047Z,55.68
2019-04-23T00:58:22.161Z,55.87
2019-04-23T00:59:12.210Z,55.58
2019-04-23T01:01:18.604Z,55.96
2019-04-23T01:02:18.352Z,56.16
2019-04-23T01:03:17.229Z,56.06
2019-04-23T01:04:22.858Z,56.25
2019-04-23T01:05:18.364Z,56.06
2019-04-23T01:06:19.393Z,56.06
2019-04-23T01:07:22.878Z,55.96
2019-04-23T01:08:18.595Z,55.96
2019-04-23T01:09:14.254Z,55.96
2019-04-23T01:10:25.528Z,56.35
2019-04-23T01:11:16.702Z,56.63
2019-04-23T01:12:25.645Z,56.25
2019-04-23T01:13:28.745Z,56.82
2019-04-23T01:15:21.318Z,56.54
2019-04-23T01:16:19.583Z,56.73
2019-04-23T01:17:30.214Z,56.73
2019-04-23T01:18:18.884Z,56.54
2019-04-23T01:19:20.637Z,56.63
2019-04-23T01:20:14.234Z,56.63
2019-04-23T01:20:55.906Z,56.70
2019-04-23T01:21:55.916Z,56.70
2019-04-23T01:22:57.085Z,56.82
2019-04-23T01:24:01.609Z,56.82
2019-04-23T01:25:02.955Z,57.31
2019-04-23T01:26:13.301Z,57.37
2019-04-23T01:27:32.511Z,57.18
2019-04-23T01:28:23.119Z,57.18
2019-04-23T01:29:22.248Z,57.46
2019-04-23T01:30:19.831Z,57.46
2019-04-23T01:31:20.073Z,57.65
2019-04-23T01:32:20.955Z,57.46
2019-04-23T01:33:27.068Z,57.46
2019-04-23T01:34:25.777Z,58.23
2019-04-23T01:35:17.726Z,57.85
2019-04-23T01:36:25.613Z,57.85
2019-04-23T01:37:26.857Z,58.04
2019-04-23T01:38:31.070Z,57.65
2019-04-23T01:39:28.014Z,57.94
2019-04-23T01:40:26.860Z,58.51
2019-04-23T01:41:20.533Z,58.33
2019-04-23T01:42:34.032Z,58.14
2019-04-23T01:43:22.920Z,58.99
2019-04-23T01:44:33.722Z,58.80
2019-04-23T01:46:25.389Z,59.09
2019-04-23T01:47:24.133Z,58.90
2019-04-23T01:48:18.207Z,59.09
2019-04-23T01:49:31.236Z,59.38
2019-04-23T01:51:27.817Z,58.99
2019-04-23T01:52:24.944Z,58.90
2019-04-23T01:53:27.310Z,59.25
2019-04-23T01:54:26.161Z,59.25
2019-04-23T01:55:29.330Z,59.66
2019-04-23T01:56:33.864Z,59.63
2019-04-23T01:57:23.310Z,59.38
2019-04-23T01:58:31.887Z,59.47
2019-04-23T01:59:24.690Z,59.76
2019-04-23T02:00:25.593Z,59.95
2019-04-23T02:01:25.783Z,59.63
2019-04-23T02:02:29.317Z,59.76
2019-04-23T02:03:21.514Z,59.92
2019-04-23T02:04:22.908Z,59.92
2019-04-23T02:05:38.576Z,60.11
2019-04-23T02:06:20.349Z,60.02
2019-04-23T02:07:33.045Z,59.92
2019-04-23T02:08:20.704Z,60.39
2019-04-23T02:09:28.904Z,60.30
2019-04-23T02:10:29.793Z,60.11
2019-04-23T02:12:25.840Z,60.21
2019-04-23T02:13:23.838Z,60.49
2019-04-23T02:14:20.835Z,60.39
2019-04-23T02:15:26.494Z,60.58
2019-04-23T02:16:25.905Z,60.49
2019-04-23T02:17:24.932Z,60.49
2019-04-23T02:18:23.496Z,60.78
2019-04-23T02:19:23.567Z,60.78
2019-04-23T02:21:32.582Z,60.68
2019-04-23T02:22:28.483Z,60.97
2019-04-23T02:23:26.287Z,60.58
2019-04-23T02:24:20.364Z,60.39
2019-04-23T02:25:31.749Z,60.97
2019-04-23T02:26:27.745Z,60.97
2019-04-23T02:27:29.975Z,60.87
2019-04-23T02:28:25.757Z,61.07
2019-04-23T02:29:39.877Z,60.87
2019-04-23T02:31:48.991Z,60.78
2019-04-23T02:32:38.195Z,60.97
2019-04-23T02:33:39.241Z,60.97
2019-04-23T02:36:22.750Z,61.54
2019-04-23T02:37:36.003Z,61.44
2019-04-23T02:39:29.301Z,61.73
2019-04-23T02:40:39.649Z,61.83
2019-04-23T02:41:34.634Z,61.54
2019-04-23T02:43:50.993Z,61.54
2019-04-23T02:44:24.024Z,61.63
2019-04-23T02:45:36.566Z,61.63
2019-04-23T02:46:17.539Z,61.83
2019-04-23T02:47:36.940Z,61.44
2019-04-23T02:48:45.873Z,61.73
2019-04-23T02:49:35.995Z,61.92
2019-04-23T02:51:37.188Z,62.30
2019-04-23T02:52:32.005Z,62.30
2019-04-23T02:53:42.656Z,62.21
2019-04-23T02:55:39.366Z,62.11
2019-04-23T02:57:29.085Z,62.49
2019-04-23T02:59:58.624Z,62.30
2019-04-23T03:00:55.320Z,62.49
2019-04-23T03:04:36.622Z,62.88
2019-04-23T03:05:25.033Z,63.07
2019-04-23T03:06:36.748Z,62.59
2019-04-23T03:10:31.327Z,63.16
2019-04-23T03:11:32.140Z,63.07
2019-04-23T03:12:31.445Z,63.07
2019-04-23T03:13:44.228Z,63.26
2019-04-23T03:15:41.759Z,63.07
2019-04-23T03:17:33.053Z,63.26
2019-04-23T03:18:44.104Z,63.45
2019-04-23T03:20:37.927Z,63.73
2019-04-23T03:21:31.304Z,63.64
2019-04-23T03:22:25.143Z,63.54
2019-04-23T03:23:32.102Z,63.83
2019-04-23T03:24:38.877Z,64.02
2019-04-23T03:25:38.185Z,64.50
2019-04-23T03:26:36.850Z,64.31
2019-04-23T03:27:31.991Z,64.31
2019-04-23T03:28:37.862Z,64.12
2019-04-23T03:29:40.897Z,64.59
2019-04-23T03:32:45.370Z,64.78
2019-04-23T03:36:13.682Z,64.97
2019-04-23T03:37:34.020Z,65.17
2019-04-23T03:38:37.534Z,65.26
2019-04-23T03:39:40.182Z,65.26
2019-04-23T03:40:21.442Z,65.55
2019-04-23T03:41:27.890Z,65.36
2019-04-23T03:42:38.671Z,65.64
2019-04-23T03:43:33.682Z,65.64
2019-04-23T03:44:47.884Z,65.55
2019-04-23T03:45:37.078Z,65.74
2019-04-23T03:46:34.048Z,65.52
2019-04-23T03:48:36.406Z,65.42
2019-04-23T03:49:30.061Z,66.09
2019-04-23T03:52:42.315Z,66.18
2019-04-23T03:54:39.913Z,65.80
2019-04-23T03:55:41.392Z,65.89
2019-04-23T03:56:58.791Z,66.09
2019-04-23T03:57:30.745Z,66.18
2019-04-23T04:01:46.337Z,66.47
2019-04-23T04:02:40.398Z,66.94
2019-04-23T04:03:50.261Z,66.75
2019-04-23T04:04:32.818Z,67.04
2019-04-23T04:06:33.748Z,67.23
2019-04-23T04:07:35.815Z,67.14
2019-04-23T04:08:29.133Z,66.94
2019-04-23T04:10:35.674Z,67.80
2019-04-23T04:12:36.079Z,67.52
2019-04-23T04:13:30.872Z,67.52
2019-04-23T04:14:49.229Z,67.42
2019-04-23T04:15:53.408Z,67.71
2019-04-23T04:16:28.977Z,67.52
2019-04-23T04:17:32.607Z,67.52
2019-04-23T04:20:33.021Z,67.61
2019-04-23T04:23:33.802Z,67.71
2019-04-23T04:26:34.915Z,67.42
2019-04-23T04:27:36.469Z,67.52
2019-04-23T04:28:48.617Z,67.80
2019-04-23T04:29:40.825Z,67.61
2019-04-23T04:30:43.507Z,67.80
2019-04-23T04:31:44.734Z,67.90
2019-04-23T04:32:33.541Z,67.90
2019-04-23T04:33:44.143Z,67.99
2019-04-23T04:35:39.222Z,67.99
2019-04-23T04:36:32.669Z,67.99
2019-04-23T04:37:44.166Z,68.18
2019-04-23T04:38:40.141Z,68.09
2019-04-23T04:39:34.355Z,68.28
2019-04-23T04:40:42.425Z,68.47
2019-04-23T04:42:30.444Z,68.28
2019-04-23T04:45:43.208Z,68.57
2019-04-23T04:46:39.406Z,68.57
2019-04-23T04:48:35.357Z,68.57
2019-04-23T04:49:36.530Z,68.57
2019-04-23T04:51:37.824Z,69.14
2019-04-23T04:52:44.308Z,69.14
2019-04-23T04:55:28.355Z,68.85
2019-04-23T04:57:36.740Z,68.76
2019-04-23T04:58:32.277Z,68.95
2019-04-23T04:59:37.780Z,68.76
2019-04-23T05:01:54.202Z,68.95
2019-04-23T05:04:37.447Z,69.23
2019-04-23T05:06:38.922Z,68.66
2019-04-23T05:08:28.890Z,68.79
2019-04-23T05:10:43.345Z,68.70
2019-04-23T05:11:40.927Z,68.88
2019-04-23T05:12:34.947Z,68.88
2019-04-23T05:13:41.374Z,68.88
2019-04-23T05:14:35.430Z,68.79
2019-04-23T05:15:25.498Z,68.88
2019-04-23T05:16:29.294Z,68.98
2019-04-23T05:17:36.023Z,68.60
2019-04-23T05:18:28.749Z,68.60
2019-04-23T05:19:43.950Z,68.32
2019-04-23T05:20:28.479Z,68.41
2019-04-23T05:21:37.658Z,68.70
2019-04-23T05:22:30.887Z,69.17
2019-04-23T05:23:27.648Z,68.70
2019-04-23T05:25:28.081Z,68.98
2019-04-23T05:26:25.166Z,69.08
2019-04-23T05:27:34.539Z,69.27
2019-04-23T05:28:51.982Z,68.88
2019-04-23T05:29:22.945Z,68.88
2019-04-23T05:31:23.666Z,68.63
2019-04-23T05:32:21.925Z,68.88
2019-04-23T05:33:25.435Z,68.92
2019-04-23T05:34:24.404Z,68.51
2019-04-23T05:35:33.718Z,68.92
2019-04-23T05:36:40.137Z,68.82
2019-04-23T05:37:40.513Z,68.70
2019-04-23T05:38:37.089Z,68.92
2019-04-23T05:42:26.054Z,68.54
2019-04-23T05:43:30.324Z,68.73
2019-04-23T05:44:32.116Z,68.63
2019-04-23T05:45:24.846Z,68.82
2019-04-23T05:46:29.851Z,68.92
2019-04-23T05:47:29.280Z,68.82
2019-04-23T05:48:23.433Z,68.92
2019-04-23T05:49:27.967Z,68.82
2019-04-23T05:50:38.768Z,69.02
2019-04-23T05:51:28.229Z,68.57
2019-04-23T05:52:24.472Z,68.86
2019-04-23T05:53:27.264Z,68.48
2019-04-23T05:54:27.767Z,68.19
2019-04-23T05:55:18.755Z,68.29
2019-04-23T05:56:20.564Z,67.81
2019-04-23T05:57:20.655Z,68.00
2019-04-23T05:58:30.086Z,67.91
2019-04-23T05:59:26.195Z,68.10
2019-04-23T06:00:28.748Z,67.81
2019-04-23T06:02:26.248Z,68.00
2019-04-23T06:03:24.778Z,67.71
2019-04-23T06:04:32.700Z,67.91
2019-04-23T06:05:28.560Z,67.24
2019-04-23T06:06:33.148Z,67.46
2019-04-23T06:08:40.930Z,67.18
2019-04-23T06:09:28.806Z,67.08
2019-04-23T06:10:27.608Z,66.99
2019-04-23T06:11:28.555Z,66.60
2019-04-23T06:12:21.378Z,66.25
2019-04-23T06:13:27.651Z,65.97
2019-04-23T06:14:25.008Z,65.97
2019-04-23T06:15:26.815Z,65.97
2019-04-23T06:16:31.342Z,65.48
2019-04-23T06:17:21.588Z,65.48
2019-04-23T06:19:39.974Z,65.30
2019-04-23T06:20:28.798Z,65.30
2019-04-23T06:21:23.982Z,65.20
2019-04-23T06:22:33.161Z,65.11
2019-04-23T06:23:33.098Z,65.39
2019-04-23T06:24:29.256Z,65.48
2019-04-23T06:25:42.183Z,65.58
2019-04-23T06:26:38.007Z,64.82
2019-04-23T06:27:28.994Z,64.95
2019-04-23T06:28:44.036Z,64.85
2019-04-23T06:29:25.753Z,64.56
2019-04-23T06:30:26.541Z,64.28
2019-04-23T06:32:25.842Z,64.28
2019-04-23T06:33:27.588Z,63.60
2019-04-23T06:35:23.799Z,63.23
2019-04-23T06:36:27.728Z,63.32
2019-04-23T06:37:28.379Z,63.23
2019-04-23T06:39:28.519Z,63.45
2019-04-23T06:40:31.570Z,63.16
2019-04-23T06:41:30.900Z,62.77
2019-04-23T06:42:23.165Z,62.87
2019-04-23T06:43:24.064Z,62.97
2019-04-23T06:44:27.049Z,62.59
2019-04-23T06:45:22.434Z,62.68
2019-04-23T06:46:29.011Z,62.49
2019-04-23T06:47:23.447Z,62.43
2019-04-23T06:49:35.509Z,62.04
2019-04-23T06:50:32.961Z,61.76
2019-04-23T06:51:31.098Z,61.94
2019-04-23T06:52:21.570Z,61.40
2019-04-23T06:53:20.949Z,60.80
2019-04-23T06:54:24.404Z,61.31
2019-04-23T06:55:28.806Z,61.11
2019-04-23T06:56:26.511Z,60.83
2019-04-23T06:57:23.813Z,60.93
2019-04-23T06:58:32.116Z,60.64
2019-04-23T06:59:24.615Z,60.64
2019-04-23T07:00:27.885Z,60.54
2019-04-23T07:01:28.376Z,60.25
2019-04-23T07:03:31.486Z,60.54
2019-04-23T07:04:33.171Z,60.35
2019-04-23T07:05:23.833Z,60.00
2019-04-23T07:07:43.091Z,59.23
2019-04-23T07:08:34.668Z,59.23
2019-04-23T07:09:17.506Z,58.65
2019-04-23T07:10:26.660Z,58.37
2019-04-23T07:11:27.031Z,58.75
2019-04-23T07:12:33.780Z,58.56
2019-04-23T07:13:34.616Z,59.13
2019-04-23T07:14:30.785Z,59.04
2019-04-23T07:15:40.754Z,58.84
2019-04-23T07:16:21.624Z,58.46
2019-04-23T07:17:34.978Z,58.37
2019-04-23T07:18:24.534Z,58.59
2019-04-23T07:20:31.998Z,58.30
2019-04-23T07:22:23.561Z,57.82
2019-04-23T07:23:30.915Z,57.34
2019-04-23T07:24:26.363Z,57.63
2019-04-23T07:25:39.042Z,57.53
2019-04-23T07:26:34.917Z,56.96
2019-04-23T07:27:27.123Z,57.53
2019-04-23T07:28:27.526Z,57.46
2019-04-23T07:29:25.810Z,56.89
2019-04-23T07:30:29.487Z,56.41
2019-04-23T07:31:26.522Z,56.89
2019-04-23T07:32:23.721Z,56.22
2019-04-23T07:33:29.888Z,56.12
2019-04-23T07:34:24.422Z,56.34
2019-04-23T07:35:28.280Z,55.77
2019-04-23T07:36:29.514Z,55.38
2019-04-23T07:37:23.021Z,55.67
2019-04-23T07:38:33.335Z,55.19
2019-04-23T07:39:27.336Z,55.29
2019-04-23T07:41:36.128Z,55.69
2019-04-23T07:43:23.072Z,54.42
2019-04-23T07:44:38.698Z,54.80
2019-04-23T07:45:32.994Z,55.12
2019-04-23T07:46:38.328Z,54.61
2019-04-23T07:48:16.684Z,54.61
2019-04-23T07:49:23.429Z,55.10
2019-04-23T07:51:29.557Z,55.47
2019-04-23T07:53:23.351Z,54.45
2019-04-23T07:54:33.799Z,54.74
2019-04-23T07:55:37.699Z,54.45
2019-04-23T07:56:28.017Z,54.09
2019-04-23T07:57:32.458Z,53.32
2019-04-23T07:58:29.033Z,52.94
2019-04-23T07:59:37.160Z,52.94
2019-04-23T08:00:36.724Z,53.45
2019-04-23T08:01:39.161Z,52.58
2019-04-23T08:02:33.531Z,51.91
2019-04-23T08:04:29.593Z,52.00
2019-04-23T08:05:31.625Z,51.72
2019-04-23T08:06:21.555Z,52.48
2019-04-23T08:07:28.266Z,52.00
2019-04-23T08:08:25.814Z,51.72
2019-04-23T08:09:34.434Z,51.72
2019-04-23T08:10:29.821Z,52.58
2019-04-23T08:11:33.134Z,52.48
2019-04-23T08:12:31.649Z,51.91
2019-04-23T08:13:33.685Z,52.00
2019-04-23T08:14:22.383Z,51.93
2019-04-23T08:15:28.339Z,51.55
2019-04-23T08:16:33.979Z,51.17
2019-04-23T08:18:32.112Z,52.00
2019-04-23T08:19:37.285Z,52.10
2019-04-23T08:20:30.707Z,51.91
2019-04-23T08:21:25.766Z,51.91
2019-04-23T08:22:35.641Z,52.10
2019-04-23T08:24:36.378Z,51.55
2019-04-23T08:25:26.428Z,51.45
2019-04-23T08:26:34.854Z,51.74
2019-04-23T08:27:22.418Z,52.12
2019-04-23T08:28:34.066Z,51.64
2019-04-23T08:29:31.028Z,51.48
2019-04-23T08:30:25.557Z,50.97
2019-04-23T08:31:32.284Z,50.97
2019-04-23T08:32:18.944Z,51.57
2019-04-23T08:33:24.793Z,50.71
2019-04-23T08:35:19.453Z,50.04
2019-04-23T08:36:27.267Z,49.87
2019-04-23T08:37:54.167Z,50.06
2019-04-23T08:39:35.418Z,49.51
2019-04-23T08:40:28.481Z,49.02
2019-04-23T08:41:33.864Z,48.57
2019-04-23T08:43:38.267Z,48.54
2019-04-23T08:44:46.143Z,48.54
2019-04-23T08:45:28.612Z,48.28
2019-04-23T08:46:33.013Z,47.31
2019-04-23T08:47:27.045Z,46.56
2019-04-23T08:48:27.483Z,46.56
2019-04-23T08:49:36.126Z,46.45
2019-04-23T08:50:27.414Z,46.55
2019-04-23T08:52:27.584Z,47.03
2019-04-23T08:54:45.947Z,46.83
2019-04-23T08:56:31.862Z,46.37
2019-04-23T08:57:30.465Z,45.99
2019-04-23T09:00:35.455Z,47.12
2019-04-23T09:01:37.042Z,47.41
2019-04-23T09:02:34.116Z,47.41
2019-04-23T09:04:36.212Z,47.05
2019-04-23T09:05:34.699Z,46.78
2019-04-23T09:06:47.215Z,46.23
2019-04-23T09:08:27.861Z,44.97
2019-04-23T09:09:34.782Z,44.49
2019-04-23T09:10:42.312Z,44.59
2019-04-23T09:12:28.659Z,44.49
2019-04-23T09:14:27.750Z,44.60
2019-04-23T09:15:36.097Z,44.22
2019-04-23T09:16:28.695Z,44.05
2019-04-23T09:18:26.218Z,43.64
2019-04-23T09:19:34.734Z,43.66
2019-04-23T09:21:27.017Z,43.84
2019-04-23T09:22:28.269Z,44.59
2019-04-23T09:23:35.100Z,44.51
2019-04-23T09:24:25.761Z,44.20
2019-04-23T09:25:34.705Z,44.49
2019-04-23T09:26:26.169Z,44.95
2019-04-23T09:27:42.070Z,44.85
2019-04-23T09:28:35.139Z,44.49
2019-04-23T09:29:40.743Z,44.59
2019-04-23T09:30:28.608Z,44.20
2019-04-23T09:31:55.562Z,44.20
2019-04-23T09:32:26.643Z,44.39
2019-04-23T09:33:36.142Z,44.22
2019-04-23T09:34:31.305Z,43.95
2019-04-23T09:36:35.387Z,42.83
2019-04-23T09:38:28.170Z,41.21
2019-04-23T09:39:32.638Z,41.29
2019-04-23T09:41:27.407Z,42.07
2019-04-23T09:42:32.318Z,41.94
2019-04-23T09:43:27.725Z,42.82
2019-04-23T09:45:37.004Z,42.43
2019-04-23T09:47:34.698Z,42.33
2019-04-23T09:48:29.911Z,41.97
2019-04-23T09:50:34.464Z,41.41
2019-04-23T09:51:34.261Z,41.21
2019-04-23T09:52:27.608Z,40.48
2019-04-23T09:54:32.537Z,39.14
2019-04-23T09:55:35.800Z,39.24
2019-04-23T09:56:30.228Z,38.78
2019-04-23T09:57:26.489Z,38.09
2019-04-23T09:58:21.927Z,37.90
2019-04-23T09:59:31.225Z,38.12
2019-04-23T10:00:40.677Z,38.40
2019-04-23T10:02:21.613Z,38.66
2019-04-23T10:03:16.163Z,38.87
2019-04-23T10:04:17.077Z,38.21
2019-04-23T10:05:13.836Z,37.45
2019-04-23T10:06:09.681Z,36.97
2019-04-23T10:07:18.026Z,36.87
2019-04-23T10:08:11.670Z,36.79
2019-04-23T10:09:05.444Z,36.21
2019-04-23T10:10:01.781Z,36.60
2019-04-23T10:11:02.906Z,36.52
2019-04-23T10:12:03.090Z,36.04
2019-04-23T10:13:02.282Z,35.72
2019-04-23T10:14:02.890Z,36.30
2019-04-23T10:15:09.805Z,36.30
2019-04-23T10:16:02.313Z,36.32
2019-04-23T10:17:02.168Z,35.66
2019-04-23T10:18:02.496Z,35.55
2019-04-23T10:19:01.963Z,35.37
2019-04-23T10:20:02.703Z,34.70
2019-04-23T10:21:03.316Z,34.88
2019-04-23T10:22:02.029Z,35.25
2019-04-23T10:23:02.342Z,35.35
2019-04-23T10:24:03.372Z,35.17
2019-04-23T10:25:03.444Z,35.17
2019-04-23T10:26:02.072Z,34.79
2019-04-23T10:27:02.085Z,34.61
2019-04-23T10:28:06.708Z,34.22
2019-04-23T10:29:02.380Z,34.14
2019-04-23T10:30:03.609Z,33.67
2019-04-23T10:31:02.815Z,33.11
2019-04-23T10:32:03.762Z,33.09
2019-04-23T10:33:03.326Z,32.99
2019-04-23T10:34:02.203Z,32.89
2019-04-23T10:35:14.766Z,32.91
2019-04-23T10:36:08.482Z,32.53
2019-04-23T10:37:02.261Z,32.26
2019-04-23T10:38:06.339Z,32.08
2019-04-23T10:39:08.638Z,31.22
2019-04-23T10:40:05.772Z,31.12
2019-04-23T10:41:02.336Z,31.10
2019-04-23T10:42:03.418Z,31.48
2019-04-23T10:43:03.914Z,31.48
2019-04-23T10:44:02.844Z,31.88
2019-04-23T10:45:14.751Z,31.12
2019-04-23T10:46:23.179Z,30.91
2019-04-23T10:47:30.151Z,30.93
2019-04-23T10:48:32.747Z,30.71
2019-04-23T10:50:37.543Z,31.01
2019-04-23T10:51:36.245Z,30.71
2019-04-23T10:53:34.953Z,31.85
2019-04-23T10:54:37.678Z,31.95
2019-04-23T10:55:35.324Z,32.34
2019-04-23T10:56:34.684Z,32.13
2019-04-23T10:57:36.124Z,32.52
2019-04-23T10:58:30.329Z,32.32
2019-04-23T10:59:20.038Z,32.26
2019-04-23T11:00:30.281Z,31.28
2019-04-23T11:01:32.076Z,31.28
2019-04-23T11:02:40.244Z,31.01
2019-04-23T11:05:46.205Z,29.90
2019-04-23T11:06:44.258Z,29.22
2019-04-23T11:07:30.934Z,28.82
2019-04-23T11:08:30.980Z,28.64
2019-04-23T11:09:47.028Z,29.03
2019-04-23T11:10:29.588Z,28.92
2019-04-23T11:11:40.226Z,29.10
2019-04-23T11:13:47.883Z,29.31
2019-04-23T11:14:34.339Z,28.63
2019-04-23T11:15:58.917Z,29.03
2019-04-23T11:16:52.265Z,28.74
2019-04-23T11:17:39.907Z,28.54
2019-04-23T11:18:48.920Z,28.44
2019-04-23T11:19:39.981Z,29.93
2019-04-23T11:21:32.814Z,30.62
2019-04-23T11:22:42.598Z,30.80
2019-04-23T11:23:34.543Z,30.93
2019-04-23T11:26:35.182Z,30.83
2019-04-23T11:27:36.251Z,30.34
2019-04-23T11:28:32.989Z,30.26
2019-04-23T11:29:34.240Z,30.06
2019-04-23T11:30:36.121Z,29.86
2019-04-23T11:31:35.157Z,29.93
2019-04-23T11:32:46.756Z,30.71
2019-04-23T11:33:39.232Z,30.44
2019-04-23T11:34:56.764Z,30.06
2019-04-23T11:35:39.958Z,29.67
2019-04-23T11:37:45.688Z,29.28
2019-04-23T11:39:43.128Z,30.91
2019-04-23T11:42:37.954Z,29.79
2019-04-23T11:44:36.776Z,29.03
2019-04-23T11:45:41.735Z,28.65
2019-04-23T11:48:04.994Z,28.26
2019-04-23T11:48:46.163Z,27.98
2019-04-23T11:51:07.835Z,28.26
2019-04-23T11:51:10.422Z,27.33
2019-04-23T11:51:57.976Z,26.55
2019-04-23T11:52:41.443Z,26.46
2019-04-23T11:53:42.603Z,26.09
2019-04-23T11:54:32.231Z,26.09
2019-04-23T11:57:03.421Z,25.79
2019-04-23T11:58:37.590Z,27.59
2019-04-23T11:59:36.098Z,27.58
2019-04-23T12:00:44.714Z,28.33
2019-04-23T12:01:47.747Z,28.82
2019-04-23T12:02:38.916Z,28.75
2019-04-23T12:03:39.494Z,27.91
2019-04-23T12:04:54.240Z,27.14
2019-04-23T12:06:19.058Z,26.81
2019-04-23T12:08:00.518Z,27.61
2019-04-23T12:10:43.012Z,27.80
2019-04-23T12:13:37.900Z,27.39
2019-04-23T12:15:32.060Z,27.87
2019-04-23T12:16:38.373Z,27.94
2019-04-23T12:17:48.969Z,29.28
2019-04-23T12:18:58.162Z,29.39
2019-04-23T12:19:52.907Z,29.14
2019-04-23T12:21:38.084Z,27.07
2019-04-23T12:23:40.579Z,25.44
2019-04-23T12:24:58.228Z,25.26
2019-04-23T12:25:36.613Z,24.76
2019-04-23T12:26:39.079Z,24.48
2019-04-23T12:27:31.460Z,24.66
2019-04-23T12:28:40.147Z,24.95
2019-04-23T12:29:46.219Z,25.05
2019-04-23T12:31:47.937Z,24.95
2019-04-23T12:33:37.181Z,25.60
2019-04-23T12:35:27.785Z,27.00
2019-04-23T12:36:37.733Z,27.39
2019-04-23T12:37:35.080Z,27.88
2019-04-23T12:38:32.998Z,26.93
2019-04-23T12:39:39.749Z,27.52
2019-04-23T12:40:43.181Z,27.23
2019-04-23T12:41:35.860Z,27.14
2019-04-23T12:42:53.956Z,27.33
2019-04-23T12:43:28.811Z,27.12
2019-04-23T12:44:40.534Z,27.42
2019-04-23T12:46:41.478Z,27.52
2019-04-23T12:49:57.810Z,26.56
2019-04-23T12:50:44.789Z,26.18
2019-04-23T12:51:41.840Z,25.70
2019-04-23T12:52:40.627Z,25.51
2019-04-23T12:53:43.253Z,25.15
2019-04-23T12:54:51.354Z,24.93
2019-04-23T12:55:36.349Z,25.04
2019-04-23T12:56:41.862Z,25.22
2019-04-23T12:57:35.740Z,25.61
2019-04-23T12:58:41.527Z,25.99
2019-04-23T12:59:41.785Z,25.81
2019-04-23T13:00:32.265Z,25.61
2019-04-23T13:01:42.811Z,25.89
2019-04-23T13:02:40.144Z,25.70
2019-04-23T13:04:32.264Z,26.55
2019-04-23T13:06:32.576Z,27.21
2019-04-23T13:07:38.894Z,27.56
2019-04-23T13:08:39.993Z,28.25
2019-04-23T13:11:34.910Z,28.75
2019-04-23T13:12:54.134Z,27.98
2019-04-23T13:13:42.567Z,28.34
2019-04-23T13:14:43.711Z,28.63
2019-04-23T13:16:46.145Z,28.44
2019-04-23T13:17:50.604Z,28.67
2019-04-23T13:20:33.058Z,29.46
2019-04-23T13:21:53.508Z,30.42
2019-04-23T13:22:39.769Z,30.99
2019-04-23T13:24:33.155Z,30.73
2019-04-23T13:26:31.432Z,30.13
2019-04-23T13:27:44.009Z,30.78
2019-04-23T13:28:45.229Z,31.48
2019-04-23T13:29:43.016Z,30.91
2019-04-23T13:30:39.012Z,30.91
2019-04-23T13:31:30.177Z,31.01
2019-04-23T13:32:36.012Z,30.81
2019-04-23T13:33:40.933Z,30.62
2019-04-23T13:34:41.450Z,30.62
2019-04-23T13:35:45.520Z,30.73
2019-04-23T13:36:39.502Z,30.65
2019-04-23T13:37:46.361Z,29.90
2019-04-23T13:39:38.954Z,29.00
2019-04-23T13:40:39.358Z,29.47
2019-04-23T13:41:31.698Z,30.21
2019-04-23T13:42:43.046Z,30.41
2019-04-23T13:43:40.403Z,31.01
2019-04-23T13:44:34.023Z,30.60
2019-04-23T13:45:56.478Z,31.07
2019-04-23T13:46:35.566Z,31.64
2019-04-23T13:47:53.409Z,32.67
2019-04-23T13:49:35.028Z,34.30
2019-04-23T13:51:32.005Z,33.73
2019-04-23T13:53:50.103Z,32.89
2019-04-23T13:54:58.485Z,32.97
2019-04-23T13:55:26.664Z,32.97
2019-04-23T13:57:03.997Z,32.32
2019-04-23T13:57:57.419Z,31.82
2019-04-23T14:00:44.715Z,31.38
2019-04-23T14:01:35.351Z,31.38
2019-04-23T14:04:44.693Z,31.20
2019-04-23T14:05:33.303Z,30.83
2019-04-23T14:06:36.494Z,30.16
2019-04-23T14:07:41.871Z,30.15
2019-04-23T14:09:54.503Z,30.22
2019-04-23T14:10:46.525Z,30.62
2019-04-23T14:12:42.012Z,30.63
2019-04-23T14:13:45.602Z,30.26
2019-04-23T14:14:41.697Z,29.96
2019-04-23T14:16:48.763Z,29.69
2019-04-23T14:17:49.010Z,29.41
2019-04-23T14:19:32.044Z,30.42
2019-04-23T14:20:36.840Z,30.71
2019-04-23T14:21:35.438Z,30.34
2019-04-23T14:23:00.094Z,29.96
2019-04-23T14:23:44.200Z,29.10
2019-04-23T14:24:46.199Z,28.61
2019-04-23T14:25:43.220Z,28.91
2019-04-23T14:27:43.007Z,29.85
2019-04-23T14:28:43.607Z,30.54
2019-04-23T14:29:42.751Z,30.60
2019-04-23T14:30:37.267Z,30.71
2019-04-23T14:31:43.285Z,31.19
2019-04-23T14:32:35.369Z,30.91
2019-04-23T14:34:39.881Z,30.34
2019-04-23T14:36:36.378Z,31.77
2019-04-23T14:37:45.757Z,32.06
2019-04-23T14:38:40.086Z,31.84
2019-04-23T14:41:31.919Z,32.82
2019-04-23T14:42:47.587Z,32.34
2019-04-23T14:43:40.671Z,32.34
2019-04-23T14:44:36.446Z,32.53
2019-04-23T14:45:58.101Z,32.43
2019-04-23T14:47:40.343Z,32.03
2019-04-23T14:48:42.088Z,32.62
2019-04-23T14:51:38.821Z,32.42
2019-04-23T14:52:38.784Z,31.92
2019-04-23T14:53:33.691Z,32.91
2019-04-23T14:55:19.920Z,33.46
2019-04-23T14:56:35.040Z,33.59
2019-04-23T14:57:49.774Z,33.33
2019-04-23T14:58:47.970Z,32.06
2019-04-23T14:59:29.186Z,31.88
2019-04-23T15:00:46.636Z,30.93
2019-04-23T15:01:35.118Z,30.45
2019-04-23T15:02:44.471Z,30.45
2019-04-23T15:03:40.372Z,31.02
2019-04-23T15:06:43.737Z,31.04
2019-04-23T15:07:34.389Z,30.65
2019-04-23T15:08:54.615Z,30.55
2019-04-23T15:09:50.534Z,30.45
2019-04-23T15:10:44.652Z,30.73
2019-04-23T15:11:36.835Z,31.10
2019-04-23T15:13:40.771Z,32.52
2019-04-23T15:14:49.004Z,34.30
2019-04-23T15:15:35.751Z,36.02
2019-04-23T15:16:39.663Z,37.34
2019-04-23T15:17:34.695Z,38.21
2019-04-23T15:18:44.519Z,38.68
2019-04-23T15:20:39.764Z,39.82
2019-04-23T15:22:48.100Z,39.45
2019-04-23T15:23:51.523Z,39.26
2019-04-23T15:27:44.694Z,40.40
2019-04-23T15:28:12.139Z,40.91
2019-04-23T15:29:24.607Z,40.03
2019-04-23T15:30:41.500Z,40.13
2019-04-23T15:31:40.483Z,40.77
2019-04-23T15:32:44.628Z,41.64
2019-04-23T15:33:48.984Z,41.93
2019-04-23T15:34:30.954Z,41.45
2019-04-23T15:36:04.766Z,41.64
2019-04-23T15:37:58.849Z,41.55
2019-04-23T15:38:34.020Z,41.25
2019-04-23T15:39:42.932Z,41.93
2019-04-23T15:40:32.908Z,41.93
2019-04-23T15:41:40.099Z,42.78
2019-04-23T15:43:43.533Z,43.17
2019-04-23T15:44:39.493Z,43.46
2019-04-23T15:45:41.892Z,42.88
2019-04-23T15:47:45.355Z,42.90
2019-04-23T15:49:01.122Z,43.07
2019-04-23T15:49:35.643Z,43.07
2019-04-23T15:50:40.164Z,43.17
2019-04-23T15:52:44.329Z,43.65
2019-04-23T15:53:30.842Z,43.34
2019-04-23T15:54:44.716Z,44.21
2019-04-23T15:55:33.892Z,43.92